Time;durP1;ratioP1;P1;durP2;ratioP2;P2;SDS_P1;SDS_P2;PMS_P1;PMS_P2;Temp;Humidity;BMP_temperature;BMP_pressure;BME280_temperature;BME280_humidity;BME280_pressure;Samples;Min_cycle;Max_cycle;Signal;HPM_P1;HPM_P2
2021/10/29 00:00:17;;;;;;;26.65;18.08;;;;;;;7.50;69.27;101189.09;5088251;28;20449;-20
2021/10/29 00:02:42;;;;;;;29.05;18.55;;;;;;;7.40;69.14;101180.50;5088107;28;20044;-20
2021/10/29 00:05:10;;;;;;;30.60;18.65;;;;;;;7.71;67.44;101175.22;5088304;28;20036;-20
2021/10/29 00:07:35;;;;;;;25.57;18.00;;;;;;;7.57;68.14;101191.88;5070271;28;20168;-20
2021/10/29 00:10:01;;;;;;;31.58;20.50;;;;;;;7.52;68.15;101168.50;5088020;28;20032;-20
2021/10/29 00:12:27;;;;;;;34.92;21.38;;;;;;;7.38;68.99;101178.00;5088239;28;20035;-20
2021/10/29 00:14:52;;;;;;;27.48;17.77;;;;;;;7.03;70.48;101173.94;5053732;28;20035;-21
2021/10/29 00:17:19;;;;;;;29.17;18.80;;;;;;;7.26;69.98;101186.50;5070339;28;20031;-20
2021/10/29 00:19:44;;;;;;;31.30;20.23;;;;;;;7.30;70.04;101186.00;5069889;28;20465;-20
2021/10/29 00:22:10;;;;;;;28.95;18.27;;;;;;;7.47;67.87;101160.22;5088017;28;20032;-20
2021/10/29 00:24:35;;;;;;;28.48;17.30;;;;;;;7.58;67.65;101178.44;5070276;28;20040;-20
2021/10/29 00:27:01;;;;;;;29.27;17.35;;;;;;;6.98;69.72;101163.00;5087987;28;20408;-20
2021/10/29 00:29:26;;;;;;;25.98;18.02;;;;;;;6.81;70.69;101170.16;5090486;28;20124;-20
2021/10/29 00:31:52;;;;;;;30.92;18.08;;;;;;;6.54;72.18;101163.34;5073503;28;20024;-20
2021/10/29 00:34:18;;;;;;;25.15;17.48;;;;;;;6.76;70.94;101165.34;5092206;28;20032;-20
2021/10/29 00:36:45;;;;;;;28.05;17.92;;;;;;;6.82;70.42;101151.44;5091875;28;20048;-20
2021/10/29 00:39:11;;;;;;;28.83;18.35;;;;;;;6.43;70.32;101164.50;5092029;28;20034;-20
2021/10/29 00:41:36;;;;;;;23.73;15.77;;;;;;;6.37;70.65;101150.09;5073959;28;20039;-19
2021/10/29 00:44:03;;;;;;;26.60;16.52;;;;;;;6.35;70.42;101160.03;5091815;28;20112;-20
2021/10/29 00:46:28;;;;;;;27.30;17.55;;;;;;;6.68;69.71;101153.91;5091684;28;20036;-20
2021/10/29 00:48:54;;;;;;;25.98;17.20;;;;;;;6.16;70.60;101134.69;5092046;28;20400;-19
2021/10/29 00:51:20;;;;;;;27.73;17.17;;;;;;;6.56;69.62;101156.06;5073593;28;20047;-21
2021/10/29 00:53:46;;;;;;;28.40;17.40;;;;;;;6.48;69.84;101167.50;5091997;28;20036;-19
2021/10/29 00:56:12;;;;;;;26.08;16.27;;;;;;;6.63;69.20;101146.47;5091668;28;20050;-20
2021/10/29 00:58:37;;;;;;;26.35;16.70;;;;;;;6.38;69.76;101133.22;5092079;28;20419;-21
2021/10/29 01:01:03;;;;;;;25.05;17.00;;;;;;;6.67;68.94;101147.78;5073402;28;20147;-20
2021/10/29 01:03:29;;;;;;;23.45;15.85;;;;;;;6.32;70.06;101147.13;5073403;28;20039;-20
2021/10/29 01:05:54;;;;;;;21.58;14.52;;;;;;;5.49;72.60;101131.97;5091230;28;20039;-20
2021/10/29 01:08:20;;;;;;;21.58;14.07;;;;;;;5.29;73.78;101149.09;5073260;28;20028;-20
2021/10/29 01:10:47;;;;;;;22.40;14.25;;;;;;;5.60;72.49;101131.72;5073302;28;20032;-20
2021/10/29 01:13:12;;;;;;;21.08;14.10;;;;;;;5.36;74.29;101135.06;5091381;28;20059;-19
2021/10/29 01:15:37;;;;;;;20.17;14.13;;;;;;;4.92;75.45;101119.28;5073119;28;20389;-20
2021/10/29 01:18:03;;;;;;;21.60;14.50;;;;;;;4.60;76.35;101119.94;5056303;28;20031;-20
2021/10/29 01:20:28;;;;;;;22.40;14.82;;;;;;;4.57;77.17;101128.97;5072829;28;20484;-19
2021/10/29 01:22:54;;;;;;;24.17;15.35;;;;;;;4.40;78.39;101137.75;5091172;28;20043;-19
2021/10/29 01:25:20;;;;;;;26.80;16.75;;;;;;;4.52;77.83;101143.63;5072862;28;20036;-19
2021/10/29 01:27:45;;;;;;;43.45;24.02;;;;;;;4.41;78.28;101123.56;5072928;28;20032;-20
2021/10/29 01:30:11;;;;;;;28.77;18.83;;;;;;;4.29;78.59;101112.41;5091091;28;20032;-21
2021/10/29 01:32:37;;;;;;;27.80;18.20;;;;;;;4.43;78.05;101135.66;5090782;28;20051;-20
2021/10/29 01:35:03;;;;;;;30.85;18.30;;;;;;;4.58;77.56;101127.19;5056239;28;20043;-20
2021/10/29 01:37:29;;;;;;;29.95;19.02;;;;;;;4.58;78.04;101121.91;5090941;28;20059;-21
2021/10/29 01:39:55;;;;;;;28.98;18.58;;;;;;;4.66;77.47;101135.16;5090224;28;20032;-20
2021/10/29 01:42:20;;;;;;;24.25;15.55;;;;;;;4.75;78.52;101133.41;5072608;28;20028;-20
2021/10/29 01:44:46;;;;;;;23.05;15.80;;;;;;;5.03;77.32;101140.19;5055948;28;20036;-20
2021/10/29 01:47:12;;;;;;;25.30;15.52;;;;;;;5.01;76.85;101139.53;5072821;28;20372;-20
2021/10/29 06:38:57;;;;;;;35.00;21.52;;;;;;;6.48;76.28;101203.75;5073059;28;20054;-20
2021/10/29 06:41:23;;;;;;;35.42;22.02;;;;;;;6.51;77.01;101220.16;5035528;28;20123;-20
2021/10/29 06:46:38;;;;;;;31.02;19.40;;;;;;;6.86;75.49;101196.16;5053167;28;20048;-21
2021/10/29 07:00:09;;;;;;;31.40;18.88;;;;;;;7.46;74.18;101230.25;5068802;28;20039;-23
2021/10/29 07:40:48;;;;;;;29.70;18.90;;;;;;;9.42;70.04;101198.06;5053228;28;20055;-20
2021/10/29 07:43:23;;;;;;;30.90;19.70;;;;;;;9.59;69.68;101198.69;5068375;28;20473;-21
2021/10/29 07:45:49;;;;;;;30.35;18.80;;;;;;;9.68;68.69;101196.75;5068322;28;20027;-20
2021/10/29 07:48:14;;;;;;;29.77;18.30;;;;;;;9.58;69.20;101184.56;5067937;28;20025;-19
2021/10/29 07:50:39;;;;;;;31.10;18.45;;;;;;;9.74;69.37;101188.84;5068400;28;20515;-20
2021/10/29 07:53:05;;;;;;;30.05;19.63;;;;;;;9.77;70.31;101185.00;5068531;28;20059;-20
2021/10/29 07:55:30;;;;;;;28.42;18.52;;;;;;;10.06;68.96;101184.91;5068363;28;20381;-20
2021/10/29 07:58:03;;;;;;;28.02;18.92;;;;;;;10.26;67.99;101184.31;5068241;28;20459;-27
2021/10/29 08:00:29;;;;;;;26.42;17.95;;;;;;;10.25;67.32;101178.16;5068064;28;20028;-21
2021/10/29 08:02:55;;;;;;;31.13;20.13;;;;;;;10.49;67.65;101188.69;5050238;28;20464;-20
2021/10/29 08:05:21;;;;;;;29.00;19.02;;;;;;;10.44;67.48;101182.09;5068282;28;20111;-20
2021/10/29 08:07:46;;;;;;;28.42;19.10;;;;;;;10.39;66.63;101173.00;5067730;28;20024;-20
2021/10/29 08:10:12;;;;;;;28.38;17.85;;;;;;;10.59;66.04;101175.84;5068017;28;20473;-20
2021/10/29 08:12:39;;;;;;;26.65;17.10;;;;;;;10.61;65.50;101163.16;5068123;28;20567;-20
2021/10/29 08:15:05;;;;;;;25.65;15.77;;;;;;;10.85;63.82;101167.25;5068182;28;20036;-21
2021/10/29 08:17:33;;;;;;;24.75;16.60;;;;;;;10.81;63.79;101160.66;5068055;28;20044;-20
2021/10/29 08:20:01;;;;;;;25.10;15.98;;;;;;;10.94;63.63;101146.56;5067833;28;20028;-22
2021/10/29 08:22:26;;;;;;;28.52;16.17;;;;;;;11.37;63.04;101163.25;5068192;28;20265;-20
2021/10/29 08:24:52;;;;;;;22.90;15.90;;;;;;;11.49;62.47;101168.06;5050172;28;20111;-21
2021/10/29 08:27:17;;;;;;;23.67;15.30;;;;;;;11.36;62.70;101163.44;5068093;28;20082;-20
2021/10/29 08:29:43;;;;;;;23.67;15.10;;;;;;;11.35;62.23;101172.50;5067824;28;20052;-19
2021/10/29 08:32:09;;;;;;;22.67;15.48;;;;;;;11.44;63.27;101172.16;5067871;28;20071;-20
2021/10/29 08:34:34;;;;;;;27.63;15.77;;;;;;;11.71;61.72;101174.09;5049586;28;20437;-20
2021/10/29 08:37:01;;;;;;;27.85;16.77;;;;;;;11.85;61.31;101170.50;5067979;28;20035;-20
2021/10/29 08:39:30;;;;;;;23.20;16.13;;;;;;;11.94;61.21;101157.78;5067629;28;20059;-20
2021/10/29 08:41:57;;;;;;;20.33;14.18;;;;;;;11.92;60.18;101155.31;5050299;28;20544;-20
2021/10/29 08:44:23;;;;;;;24.77;15.65;;;;;;;12.14;59.73;101163.19;5067577;28;20043;-20
2021/10/29 08:46:49;;;;;;;21.83;14.50;;;;;;;12.45;58.64;101160.78;5067694;28;20028;-20
2021/10/29 08:49:15;;;;;;;23.98;15.60;;;;;;;12.59;60.36;101152.78;5068152;28;20036;-20
2021/10/29 08:51:41;;;;;;;23.27;14.38;;;;;;;12.73;57.46;101159.75;5053599;28;20032;-20
2021/10/29 08:54:07;;;;;;;24.15;14.80;;;;;;;12.52;58.18;101131.34;5071738;28;20525;-20
2021/10/29 08:56:33;;;;;;;23.50;15.18;;;;;;;12.59;59.16;101158.94;5071511;28;20025;-21
2021/10/29 08:59:02;;;;;;;23.35;13.50;;;;;;;12.83;57.56;101149.47;5071188;28;20538;-20
2021/10/29 09:01:28;;;;;;;21.92;14.13;;;;;;;12.89;57.54;101149.66;5071355;28;20488;-20
2021/10/29 09:04:00;;;;;;;19.25;14.00;;;;;;;13.11;56.95;101150.25;5053207;28;20032;-20
2021/10/29 09:06:46;;;;;;;17.80;12.93;;;;;;;13.26;56.31;101148.16;5071466;28;20024;-20
2021/10/29 09:31:27;;;;;;;18.48;12.90;;;;;;;14.12;52.91;101113.97;5071231;28;20082;-20
2021/10/29 09:34:00;;;;;;;19.27;12.30;;;;;;;14.46;53.25;101129.63;5070692;28;20056;-20
2021/10/29 09:36:35;;;;;;;16.75;12.15;;;;;;;15.01;50.40;101128.13;5070593;28;20020;-21
2021/10/29 09:39:06;;;;;;;21.13;13.02;;;;;;;14.77;49.93;101117.22;5069994;28;20058;-20
2021/10/29 09:41:32;;;;;;;19.30;11.52;;;;;;;15.05;50.30;101124.78;5070659;28;20570;-21
2021/10/29 09:44:00;;;;;;;15.07;11.07;;;;;;;15.18;49.61;101123.84;5070370;28;20105;-21
2021/10/29 09:46:34;;;;;;;15.63;10.82;;;;;;;15.29;48.23;101122.25;5070529;28;20059;-21
2021/10/29 09:49:11;;;;;;;16.52;10.93;;;;;;;15.43;49.21;101129.13;5070363;28;20032;-20
2021/10/29 09:51:49;;;;;;;15.90;10.75;;;;;;;15.63;48.71;101125.34;5052400;28;20510;-20
2021/10/29 09:54:18;;;;;;;14.85;11.02;;;;;;;15.61;46.11;101122.91;5054346;28;20040;-20
2021/10/29 09:56:54;;;;;;;13.20;9.02;;;;;;;15.71;45.97;101116.97;5070286;28;20052;-19
2021/10/29 09:59:20;;;;;;;15.35;9.73;;;;;;;15.75;47.22;101096.72;5070323;28;20091;-20
2021/10/29 10:01:45;;;;;;;12.60;8.35;;;;;;;16.29;47.11;101096.72;5069400;28;20024;-19
2021/10/29 10:04:11;;;;;;;12.10;7.15;;;;;;;15.73;44.40;101106.03;5052502;28;20524;-20
2021/10/29 10:06:41;;;;;;;16.90;10.25;;;;;;;15.79;46.91;101097.03;5035994;28;20036;-20
2021/10/29 10:09:10;;;;;;;39.40;20.42;;;;;;;15.93;45.56;101087.75;5052140;28;20045;-20
2021/10/29 10:11:37;;;;;;;13.75;8.60;;;;;;;16.12;47.22;101083.13;5070394;28;20045;-20
2021/10/29 10:14:04;;;;;;;11.48;8.02;;;;;;;16.57;45.51;101082.59;5051892;28;20033;-20
2021/10/29 10:16:30;;;;;;;14.73;7.50;;;;;;;17.11;44.39;101087.84;5070027;28;20029;-20
2021/10/29 10:18:55;;;;;;;11.25;7.32;;;;;;;16.53;45.16;101067.13;5035603;28;20113;-20
2021/10/29 10:21:22;;;;;;;10.38;7.75;;;;;;;17.38;43.85;101073.84;5051829;28;20052;-21
2021/10/29 10:23:51;;;;;;;11.85;7.10;;;;;;;17.76;41.63;101075.91;5035744;28;20044;-20
2021/10/29 10:26:50;;;;;;;14.57;8.32;;;;;;;17.72;42.23;101076.66;5069916;28;20101;-19
2021/10/29 10:45:44;;;;;;;10.80;8.02;;;;;;;17.92;41.56;101057.31;5069450;28;20048;-20
2021/10/29 10:48:14;;;;;;;12.68;8.25;;;;;;;17.84;41.49;101045.06;5053237;28;20025;-20
2021/10/29 10:50:46;;;;;;;12.85;7.93;;;;;;;18.59;40.47;101045.69;5069325;28;20036;-20
2021/10/29 10:53:18;;;;;;;11.50;7.72;;;;;;;18.26;40.20;101041.97;5052233;28;20036;-20
2021/10/29 10:57:06;;;;;;;12.52;8.35;;;;;;;18.06;42.04;101027.09;5069075;28;20127;-20
2021/10/29 11:00:11;;;;;;;11.73;7.40;;;;;;;18.72;40.82;101053.47;5047071;28;20051;-19
2021/10/29 11:09:53;;;;;;;12.30;8.05;;;;;;;19.26;39.28;101042.00;5068991;28;20051;-21
2021/10/29 11:10:34;;;;;;;10.20;7.63;;;;;;;19.90;38.24;101041.34;5068852;28;20042;-21
2021/10/29 11:13:00;;;;;;;12.20;8.25;;;;;;;19.80;38.85;101041.25;5068233;28;20033;-20
2021/10/29 11:15:26;;;;;;;10.30;7.18;;;;;;;18.68;39.92;101015.31;5068980;28;20024;-19
2021/10/29 11:17:57;;;;;;;10.35;7.55;;;;;;;18.91;40.54;101002.66;5068799;28;20503;-20
2021/10/29 11:20:39;;;;;;;12.95;8.25;;;;;;;18.74;40.22;101018.91;5068829;28;20128;-20
2021/10/29 11:23:10;;;;;;;15.38;7.32;;;;;;;18.61;40.83;101019.25;5068882;28;20085;-19
2021/10/29 11:26:02;;;;;;;10.73;6.93;;;;;;;18.07;40.39;101012.50;5068692;28;20024;-20
2021/10/29 11:28:35;;;;;;;9.95;6.88;;;;;;;18.19;41.13;101012.44;5068681;28;20181;-20
2021/10/29 11:31:03;;;;;;;20.38;14.18;;;;;;;19.05;40.20;101003.09;5068494;28;20024;-20
2021/10/29 11:33:29;;;;;;;14.18;9.25;;;;;;;19.72;38.09;100999.22;5068832;28;20123;-20
2021/10/29 11:36:04;;;;;;;11.93;7.00;;;;;;;19.78;38.23;100990.06;5067626;28;20558;-20
2021/10/29 11:38:34;;;;;;;12.25;7.78;;;;;;;20.26;36.73;100980.13;5068445;28;20094;-19
2021/10/29 11:41:00;;;;;;;11.48;6.75;;;;;;;20.10;37.40;101000.06;5068532;28;20028;-20
2021/10/29 11:43:28;;;;;;;9.32;7.50;;;;;;;20.61;35.29;100980.63;5068306;28;20028;-20
2021/10/29 11:45:55;;;;;;;9.90;6.38;;;;;;;21.58;34.47;100988.28;5068287;28;20028;-20
2021/10/29 11:48:21;;;;;;;27.02;18.63;;;;;;;21.34;34.45;100958.91;5068227;28;20037;-19
2021/10/29 11:50:46;;;;;;;12.65;8.00;;;;;;;21.97;32.40;100985.84;5068382;28;20542;-19
2021/10/29 11:53:13;;;;;;;10.80;6.55;;;;;;;21.39;33.81;100975.22;5033634;28;20036;-20
2021/10/29 11:55:52;;;;;;;9.43;6.10;;;;;;;21.31;33.86;100977.63;5050722;28;20579;-20
2021/10/29 12:09:27;;;;;;;8.50;5.43;;;;;;;20.47;33.99;100969.41;5068377;28;20029;-20
2021/10/29 12:11:57;;;;;;;8.32;5.10;;;;;;;21.40;31.96;100970.59;5067731;28;20036;-20
2021/10/29 12:14:30;;;;;;;9.27;5.30;;;;;;;21.45;32.75;100952.44;5067985;28;20028;-20
2021/10/29 12:17:00;;;;;;;10.38;4.82;;;;;;;22.31;30.33;100960.81;5050215;28;20137;-20
2021/10/29 12:19:26;;;;;;;8.35;4.20;;;;;;;22.55;27.51;100968.38;5050869;28;20111;-20
2021/10/29 12:22:05;;;;;;;8.07;3.45;;;;;;;22.53;27.45;100956.97;5067771;28;20036;-19
2021/10/29 12:24:33;;;;;;;4.72;2.40;;;;;;;22.36;27.46;100962.72;5036283;28;20032;-20
2021/10/29 12:27:02;;;;;;;5.22;2.38;;;;;;;21.39;28.68;100963.50;5054749;28;20043;-19
2021/10/29 12:29:32;;;;;;;5.47;2.28;;;;;;;21.56;27.24;100958.69;5071366;28;20040;-19
2021/10/29 12:38:00;;;;;;;8.20;3.17;;;;;;;22.34;24.06;100941.25;5071935;28;20072;-20
2021/10/29 12:52:08;;;;;;;4.43;2.10;;;;;;;22.27;22.55;100929.84;5057346;28;20146;-20
2021/10/29 12:58:49;;;;;;;7.05;3.28;;;;;;;21.55;22.70;100940.75;5072071;28;20033;-19
2021/10/29 13:03:02;;;;;;;6.40;4.03;;;;;;;22.79;22.05;100942.16;5056556;28;20040;-19
2021/10/29 13:05:28;;;;;;;5.40;2.35;;;;;;;22.98;22.75;100945.06;5071459;28;20059;-20
2021/10/29 13:07:53;;;;;;;5.32;2.83;;;;;;;23.06;22.52;100924.63;5070856;28;20036;-20
2021/10/29 13:10:20;;;;;;;4.90;2.42;;;;;;;22.47;23.25;100923.53;5071153;28;20033;-20
2021/10/29 13:15:14;;;;;;;6.13;3.10;;;;;;;24.13;21.91;100916.69;5071053;28;20029;-19
2021/10/29 13:17:47;;;;;;;4.72;2.17;;;;;;;25.41;20.62;100925.97;5071195;28;20029;-20
2021/10/29 13:36:41;;;;;;;6.53;2.33;;;;;;;25.36;20.55;100929.59;5069938;28;20051;-19
2021/10/29 13:53:04;;;;;;;6.72;3.10;;;;;;;27.40;19.97;100928.59;5070394;28;20051;-20
2021/10/29 13:55:53;;;;;;;5.80;3.83;;;;;;;26.50;20.21;100914.69;5070432;28;20032;-20
2021/10/29 14:30:16;;;;;;;8.88;4.88;;;;;;;21.90;28.37;100914.69;5090063;28;20046;-20
2021/10/29 14:35:15;;;;;;;10.65;4.97;;;;;;;19.27;32.46;100906.53;5089941;28;20027;-20
2021/10/29 14:42:45;;;;;;;9.15;5.68;;;;;;;18.04;36.38;100896.13;5089679;28;20123;-20
2021/10/29 14:53:06;;;;;;;34.45;11.65;;;;;;;16.62;39.80;100906.84;5089867;28;20126;-20
2021/10/29 15:51:15;;;;;;;13.57;7.63;;;;;;;15.37;46.04;100933.00;5070411;28;20032;-20
2021/10/29 15:53:42;;;;;;;11.88;6.95;;;;;;;15.64;44.65;100928.84;5088267;28;20032;-20
2021/10/29 15:56:14;;;;;;;13.73;7.93;;;;;;;15.85;44.02;100934.75;5088199;28;20028;-20
2021/10/29 15:58:58;;;;;;;15.35;9.10;;;;;;;15.70;44.12;100918.22;5071075;28;20043;-20
2021/10/29 16:17:20;;;;;;;55.65;26.45;;;;;;;13.94;50.43;100919.78;5088289;28;20577;-22
2021/10/29 16:19:45;;;;;;;56.03;27.83;;;;;;;14.16;49.28;100930.09;5087939;28;20036;-22
2021/10/29 16:22:23;;;;;;;203.30;102.65;;;;;;;14.53;49.91;100938.19;5088361;28;20035;-22
2021/10/29 16:27:21;;;;;;;60.40;32.13;;;;;;;14.42;49.13;100943.22;5088532;28;20054;-23
2021/10/29 16:29:49;;;;;;;42.42;24.23;;;;;;;14.13;50.11;100943.94;5069954;28;20028;-22
2021/10/29 16:32:18;;;;;;;37.22;21.30;;;;;;;13.93;50.56;100939.56;5087816;28;20750;-21
2021/10/29 16:34:44;;;;;;;37.72;20.60;;;;;;;13.86;50.31;100936.97;5087900;28;20032;-22
2021/10/29 16:37:09;;;;;;;55.70;28.67;;;;;;;13.99;50.34;100949.41;5087751;28;20051;-21
2021/10/29 16:39:35;;;;;;;84.05;37.08;;;;;;;14.16;50.22;100932.75;5087703;28;20039;-22
2021/10/29 16:42:00;;;;;;;48.78;25.20;;;;;;;14.27;49.71;100948.16;5087784;28;20075;-23
2021/10/29 16:44:25;;;;;;;43.63;23.95;;;;;;;13.45;51.27;100958.91;5087653;28;20032;-23
2021/10/29 16:46:51;;;;;;;43.75;23.80;;;;;;;13.26;51.78;100945.41;5069507;28;20038;-22
2021/10/29 16:49:17;;;;;;;40.80;22.58;;;;;;;13.57;51.41;100951.81;5087803;28;20089;-23
2021/10/29 16:51:43;;;;;;;64.22;26.70;;;;;;;13.55;51.96;100959.25;5087549;28;20071;-23
2021/10/29 16:54:10;;;;;;;44.67;26.65;;;;;;;13.60;52.25;100962.09;5087823;28;20059;-22
2021/10/29 16:56:35;;;;;;;67.57;38.45;;;;;;;13.52;52.62;100975.75;5087720;28;20062;-23
2021/10/29 16:59:00;;;;;;;451.83;173.55;;;;;;;13.35;53.24;100974.66;5087915;28;20094;-24
2021/10/29 17:01:26;;;;;;;534.33;221.85;;;;;;;12.80;55.10;100989.25;5087465;28;20028;-25
2021/10/29 17:03:52;;;;;;;354.77;148.88;;;;;;;12.77;55.25;100984.34;5086904;28;20094;-23
2021/10/29 17:06:17;;;;;;;266.02;116.07;;;;;;;12.57;55.87;100987.06;5087951;28;20458;-22
2021/10/29 17:08:42;;;;;;;271.33;116.80;;;;;;;12.97;54.69;100989.59;5069389;28;20036;-21
2021/10/29 17:11:13;;;;;;;221.80;98.43;;;;;;;12.70;55.27;100988.88;5089656;28;20122;-22
2021/10/29 17:13:39;;;;;;;185.65;82.82;;;;;;;12.58;55.52;100991.38;5091547;28;20040;-22
2021/10/29 17:16:06;;;;;;;321.58;124.05;;;;;;;12.33;55.86;100967.13;5091142;28;20484;-22
2021/10/29 17:18:31;;;;;;;235.98;90.82;;;;;;;12.50;55.48;100994.28;5056905;28;20035;-23
2021/10/29 17:20:57;;;;;;;223.38;93.00;;;;;;;12.25;56.69;100991.44;5091510;28;20023;-22
2021/10/29 17:23:23;;;;;;;214.23;87.63;;;;;;;11.80;58.55;100983.19;5091321;28;20036;-22
2021/10/29 17:25:48;;;;;;;208.00;88.63;;;;;;;11.38;60.21;101007.34;5091325;28;20036;-22
2021/10/29 17:28:14;;;;;;;149.88;72.45;;;;;;;11.57;59.94;101012.94;5091181;28;20128;-22
2021/10/29 17:30:39;;;;;;;140.43;69.05;;;;;;;11.56;60.30;101017.44;5091114;28;20038;-22
2021/10/29 17:33:05;;;;;;;141.25;65.68;;;;;;;11.87;58.75;101010.75;5091250;28;20031;-22
2021/10/29 17:35:30;;;;;;;142.50;71.70;;;;;;;11.41;60.44;100995.44;5091115;28;20032;-22
2021/10/29 17:37:56;;;;;;;133.68;68.90;;;;;;;11.12;61.38;101012.59;5072379;28;20044;-22
2021/10/29 17:40:21;;;;;;;131.90;68.60;;;;;;;10.99;61.49;101002.66;5091085;28;20573;-22
2021/10/29 17:42:47;;;;;;;140.35;70.32;;;;;;;10.99;61.43;101024.88;5091015;28;20043;-23
2021/10/29 17:45:14;;;;;;;144.00;73.10;;;;;;;11.05;61.80;101009.88;5089736;28;20055;-24
2021/10/29 17:47:39;;;;;;;126.10;58.45;;;;;;;11.06;61.21;101012.34;5056380;28;20028;-24
2021/10/29 17:50:05;;;;;;;86.03;47.28;;;;;;;11.19;60.36;101030.28;5090392;28;20038;-23
2021/10/29 17:52:31;;;;;;;85.25;47.58;;;;;;;10.70;62.18;101036.59;5090485;28;20122;-22
2021/10/29 17:54:59;;;;;;;84.45;48.88;;;;;;;10.59;61.88;101010.47;5090681;28;20471;-23
2021/10/29 17:57:24;;;;;;;91.35;47.55;;;;;;;10.60;63.32;101031.63;5090512;28;20070;-23
2021/10/29 17:59:51;;;;;;;87.57;51.88;;;;;;;10.24;63.32;101027.22;5090087;28;20067;-23
2021/10/29 18:02:21;;;;;;;80.45;47.75;;;;;;;10.17;65.49;101036.16;5090744;28;20036;-23
2021/10/29 18:04:47;;;;;;;79.85;46.38;;;;;;;10.49;63.05;101034.00;5090732;28;20059;-23
2021/10/29 18:07:13;;;;;;;55.75;33.10;;;;;;;10.53;61.57;101046.75;5072187;28;20055;-23
2021/10/29 18:09:38;;;;;;;49.35;31.08;;;;;;;10.81;59.98;101037.91;5090081;28;20027;-23
2021/10/29 18:12:08;;;;;;;55.15;34.22;;;;;;;10.58;62.63;101057.66;5090200;28;20032;-23
2021/10/29 18:14:35;;;;;;;47.53;29.88;;;;;;;10.73;60.74;101035.41;5090559;28;20463;-22
2021/10/29 18:17:01;;;;;;;50.40;30.08;;;;;;;10.93;60.53;101054.16;5090174;28;20059;-23
2021/10/29 18:19:26;;;;;;;55.42;31.00;;;;;;;10.98;59.98;101054.41;5090132;28;20488;-23
2021/10/29 18:21:52;;;;;;;62.40;34.90;;;;;;;11.40;59.37;101068.56;5089856;28;20533;-23
2021/10/29 18:24:17;;;;;;;62.22;36.92;;;;;;;10.90;60.67;101060.72;5090404;28;20047;-23
2021/10/29 18:26:43;;;;;;;54.53;35.65;;;;;;;11.04;60.53;101056.28;5089724;28;20036;-23
2021/10/29 18:29:10;;;;;;;59.70;36.95;;;;;;;10.58;62.23;101067.50;5089860;28;20035;-23
2021/10/29 18:31:36;;;;;;;56.33;35.33;;;;;;;10.63;62.16;101073.09;5089957;28;20028;-23
2021/10/29 18:34:02;;;;;;;96.38;53.55;;;;;;;10.75;61.52;101070.72;5089540;28;20101;-23
2021/10/29 18:36:27;;;;;;;113.72;59.65;;;;;;;11.14;60.06;101067.44;5090169;28;20028;-23
2021/10/29 18:38:53;;;;;;;68.93;42.38;;;;;;;10.94;60.12;101071.84;5089479;28;20051;-23
2021/10/29 18:41:19;;;;;;;211.13;105.78;;;;;;;10.79;60.64;101058.63;5089849;28;20551;-23
2021/10/29 18:43:45;;;;;;;63.33;39.75;;;;;;;11.18;60.10;101076.69;5089667;28;20123;-23
2021/10/29 18:46:12;;;;;;;54.47;35.53;;;;;;;10.76;60.78;101083.84;5089565;28;20032;-22
2021/10/29 18:48:38;;;;;;;52.58;33.20;;;;;;;10.94;59.80;101079.84;5089390;28;20028;-23
2021/10/29 18:51:03;;;;;;;52.75;35.28;;;;;;;10.71;59.73;101075.59;5089582;28;20036;-23
2021/10/29 18:53:29;;;;;;;55.83;35.63;;;;;;;10.79;60.36;101075.44;5089729;28;20039;-23
2021/10/29 18:55:54;;;;;;;49.28;33.95;;;;;;;10.59;60.14;101082.50;5089484;28;20488;-23
2021/10/29 18:58:20;;;;;;;50.13;31.20;;;;;;;10.83;59.63;101075.91;5089599;28;20032;-22
2021/10/29 19:00:45;;;;;;;214.32;92.65;;;;;;;10.41;61.80;101091.78;5070987;28;20059;-22
2021/10/29 19:03:11;;;;;;;55.17;34.90;;;;;;;10.51;61.14;101093.31;5089172;28;20032;-22
2021/10/29 19:05:36;;;;;;;41.80;27.48;;;;;;;10.27;62.45;101101.47;5089370;28;20498;-22
2021/10/29 19:08:03;;;;;;;39.90;26.58;;;;;;;10.00;62.80;101094.25;5070923;28;20078;-22
2021/10/29 19:10:30;;;;;;;42.13;26.30;;;;;;;10.14;63.08;101100.53;5089095;28;20052;-21
2021/10/29 19:12:55;;;;;;;40.55;23.90;;;;;;;10.08;63.45;101095.97;5089170;28;20039;-20
2021/10/29 19:15:21;;;;;;;39.88;24.88;;;;;;;9.99;63.56;101096.09;5089123;28;20024;-20
2021/10/29 19:17:46;;;;;;;40.63;26.52;;;;;;;9.97;63.92;101090.13;5088747;28;20032;-20
2021/10/29 19:20:12;;;;;;;35.50;23.33;;;;;;;9.79;64.45;101103.06;5089178;28;20023;-20
2021/10/29 19:22:38;;;;;;;33.30;22.50;;;;;;;9.39;66.08;101102.56;5088924;28;20115;-20
2021/10/29 19:25:04;;;;;;;27.90;20.98;;;;;;;9.72;65.67;101080.84;5088786;28;20062;-20
2021/10/29 19:27:30;;;;;;;30.10;20.92;;;;;;;10.14;63.83;101096.03;5088789;28;20097;-20
2021/10/29 19:29:55;;;;;;;24.45;17.70;;;;;;;10.04;64.73;101104.34;5088968;28;20024;-20
2021/10/29 19:32:21;;;;;;;26.42;17.67;;;;;;;10.08;64.81;101095.97;5088844;28;20028;-20
2021/10/29 19:34:47;;;;;;;24.42;16.75;;;;;;;9.79;65.61;101097.72;5088039;28;20032;-21
2021/10/29 19:37:16;;;;;;;23.92;16.58;;;;;;;10.21;64.55;101102.22;5088612;28;20028;-21
2021/10/29 19:42:07;;;;;;;34.60;22.30;;;;;;;9.99;64.14;101092.59;5088703;28;20044;-21
2021/10/29 19:44:33;;;;;;;33.13;21.45;;;;;;;10.02;63.47;101103.69;5088973;28;20028;-20
2021/10/29 19:46:58;;;;;;;35.88;22.30;;;;;;;9.75;63.61;101112.44;5088739;28;20102;-20
2021/10/29 19:49:24;;;;;;;35.40;21.17;;;;;;;9.51;64.59;101111.72;5070372;28;20036;-20
2021/10/29 19:51:49;;;;;;;31.65;21.35;;;;;;;9.65;63.92;101107.41;5088145;28;20472;-20
2021/10/29 19:54:18;;;;;;;31.92;20.17;;;;;;;9.06;65.40;101089.66;5088148;28;20047;-20
2021/10/29 19:56:47;;;;;;;33.38;19.58;;;;;;;9.16;65.14;101092.84;5088159;28;20089;-20
2021/10/29 19:59:13;;;;;;;32.92;20.25;;;;;;;9.11;65.61;101097.91;5088424;28;20097;-21
2021/10/29 20:01:39;;;;;;;29.98;19.30;;;;;;;9.06;65.39;101094.97;5070656;28;20376;-20
2021/10/29 20:04:04;;;;;;;30.25;19.98;;;;;;;9.18;65.29;101101.50;5069962;28;20078;-20
2021/10/29 20:06:30;;;;;;;29.42;17.98;;;;;;;8.54;67.67;101104.66;5088409;28;20036;-20
2021/10/29 20:08:55;;;;;;;28.23;17.23;;;;;;;8.39;68.29;101101.91;5088453;28;20031;-20
2021/10/29 20:11:21;;;;;;;26.45;17.10;;;;;;;8.57;68.18;101103.44;5088299;28;20032;-20
2021/10/29 20:13:46;;;;;;;57.15;17.77;;;;;;;8.96;66.77;101087.25;5088027;28;20036;-21
2021/10/29 20:16:12;;;;;;;31.13;18.80;;;;;;;9.40;65.25;101098.91;5088472;28;20376;-20
2021/10/29 20:18:43;;;;;;;34.40;24.73;;;;;;;8.89;67.62;101091.69;5088212;28;20024;-21
2021/10/29 20:21:08;;;;;;;29.75;18.48;;;;;;;9.01;67.44;101081.38;5088272;28;20031;-20
2021/10/29 20:23:35;;;;;;;30.50;19.48;;;;;;;9.36;66.98;101109.09;5088037;28;20101;-20
2021/10/29 20:26:00;;;;;;;29.95;19.90;;;;;;;9.06;67.76;101079.00;5087947;28;20068;-20
2021/10/29 20:28:26;;;;;;;35.60;24.52;;;;;;;8.87;69.24;101114.97;5069891;28;20468;-20
2021/10/29 20:30:52;;;;;;;31.15;23.02;;;;;;;8.75;69.66;101114.59;5088263;28;20031;-21
2021/10/29 20:33:18;;;;;;;32.85;19.17;;;;;;;8.59;69.79;101112.06;5088245;28;20028;-20
2021/10/29 20:35:43;;;;;;;35.53;20.52;;;;;;;8.30;67.54;101102.97;5087872;28;20035;-20
2021/10/29 20:38:09;;;;;;;33.72;20.48;;;;;;;8.57;65.95;101108.78;5069881;28;20551;-20
2021/10/29 20:40:34;;;;;;;34.70;20.42;;;;;;;8.33;67.04;101113.25;5088236;28;20024;-21
2021/10/29 20:43:00;;;;;;;33.70;20.20;;;;;;;8.09;68.12;101111.63;5088140;28;20075;-21
2021/10/29 20:45:28;;;;;;;33.15;19.17;;;;;;;8.28;67.98;101120.94;5088952;28;20954;-20
2021/10/29 20:47:54;;;;;;;36.88;20.85;;;;;;;8.34;67.88;101120.22;5074542;28;20492;-20
2021/10/29 20:50:20;;;;;;;31.20;20.10;;;;;;;8.01;67.95;101096.56;5091987;28;20044;-20
2021/10/29 20:52:46;;;;;;;37.13;20.75;;;;;;;8.12;68.50;101094.50;5091824;28;20036;-20